createdAt,value
2023-10-29T00:01:28.360Z,87.71
2023-10-29T00:03:56.422Z,87.66
2023-10-29T00:06:23.317Z,87.80
2023-10-29T00:08:50.187Z,87.78
2023-10-29T00:11:16.929Z,87.51
2023-10-29T00:13:44.285Z,87.90
2023-10-29T00:16:12.542Z,87.51
2023-10-29T00:18:40.256Z,87.63
2023-10-29T00:21:07.457Z,87.39
2023-10-29T00:23:35.143Z,87.13
2023-10-29T00:26:02.076Z,87.90
2023-10-29T00:28:28.878Z,87.42
2023-10-29T00:30:56.594Z,87.65
2023-10-29T00:33:24.439Z,87.37
2023-10-29T00:35:51.737Z,87.43
2023-10-29T00:38:18.457Z,87.74
2023-10-29T00:40:45.209Z,87.39
2023-10-29T00:43:15.809Z,87.53
2023-10-29T00:45:44.273Z,87.85
2023-10-29T00:48:13.009Z,87.73
2023-10-29T00:50:40.851Z,87.68
2023-10-29T00:53:07.839Z,87.53
2023-10-29T00:55:34.869Z,87.27
2023-10-29T00:58:01.705Z,87.76
2023-10-29T01:00:28.489Z,87.51
2023-10-29T01:02:55.420Z,87.73
2023-10-29T01:05:23.155Z,87.23
2023-10-29T01:07:50.314Z,87.87
2023-10-29T01:10:16.969Z,87.66
2023-10-29T01:12:45.313Z,87.24
2023-10-29T01:15:12.023Z,87.41
2023-10-29T01:17:39.376Z,87.60
2023-10-29T01:20:06.672Z,87.54
2023-10-29T01:22:34.722Z,87.02
2023-10-29T01:25:06.839Z,87.07
2023-10-29T01:27:34.328Z,87.63
2023-10-29T01:30:00.982Z,87.18
2023-10-29T01:32:27.687Z,87.16
2023-10-29T01:34:54.438Z,87.53
2023-10-29T01:37:21.125Z,87.43
2023-10-29T01:39:47.787Z,86.88
2023-10-29T01:42:14.526Z,87.16
2023-10-29T01:44:41.288Z,87.61
2023-10-29T01:47:08.007Z,87.61
2023-10-29T01:49:34.695Z,87.06
2023-10-29T01:52:01.430Z,86.99
2023-10-29T01:54:28.365Z,86.83
2023-10-29T01:56:55.040Z,87.13
2023-10-29T01:59:21.921Z,86.91
2023-10-29T02:01:48.768Z,86.83
2023-10-29T02:04:15.497Z,87.41
2023-10-29T02:06:42.303Z,87.61
2023-10-29T02:09:10.251Z,87.59
2023-10-29T02:11:40.978Z,87.35
2023-10-29T02:14:08.169Z,86.89
2023-10-29T02:16:35.153Z,87.14
2023-10-29T02:19:01.810Z,87.56
2023-10-29T02:21:28.473Z,87.31
2023-10-29T02:23:56.472Z,87.03
2023-10-29T02:26:24.348Z,86.97
2023-10-29T02:28:51.278Z,87.48
2023-10-29T02:31:18.934Z,87.26
2023-10-29T02:33:46.116Z,87.69
2023-10-29T02:36:12.965Z,87.01
2023-10-29T02:38:39.755Z,87.30
2023-10-29T02:41:06.990Z,87.50
2023-10-29T02:43:40.017Z,87.34
2023-10-29T02:46:07.081Z,87.48
2023-10-29T02:48:34.019Z,87.31
2023-10-29T02:51:00.819Z,87.21
2023-10-29T02:53:27.515Z,87.06
2023-10-29T02:55:57.689Z,87.17
2023-10-29T02:58:25.822Z,87.73
2023-10-29T03:00:52.641Z,86.86
2023-10-29T03:03:19.493Z,87.26
2023-10-29T03:05:56.779Z,87.63
2023-10-29T03:08:24.647Z,87.61
2023-10-29T03:10:52.243Z,87.18
2023-10-29T03:13:18.993Z,87.52
2023-10-29T03:15:46.223Z,87.54
2023-10-29T03:18:13.363Z,87.74
2023-10-29T03:20:40.826Z,87.30
2023-10-29T03:23:07.816Z,87.03
2023-10-29T03:25:34.650Z,87.25
2023-10-29T03:28:01.579Z,87.00
2023-10-29T03:30:28.209Z,87.79
2023-10-29T03:32:55.047Z,87.20
2023-10-29T03:35:21.909Z,87.43
2023-10-29T03:37:48.536Z,87.18
2023-10-29T03:40:15.249Z,87.67
2023-10-29T03:42:41.874Z,87.52
2023-10-29T03:45:08.813Z,87.74
2023-10-29T03:47:35.482Z,87.18
2023-10-29T03:50:03.236Z,87.57
2023-10-29T03:52:29.844Z,87.39
2023-10-29T03:54:56.500Z,87.05
2023-10-29T03:57:23.193Z,87.74
2023-10-29T03:59:49.965Z,87.31
2023-10-29T04:02:16.661Z,87.82
2023-10-29T04:04:47.936Z,87.54
2023-10-29T04:07:20.507Z,87.99
2023-10-29T04:09:47.204Z,87.93
2023-10-29T04:12:13.828Z,87.91
2023-10-29T04:14:43.799Z,88.13
2023-10-29T04:17:11.716Z,87.88
2023-10-29T04:19:40.305Z,87.23
2023-10-29T04:22:06.984Z,87.81
2023-10-29T04:24:34.649Z,87.61
2023-10-29T04:27:01.412Z,87.75
2023-10-29T04:29:28.076Z,87.66
2023-10-29T04:31:54.730Z,87.47
2023-10-29T04:34:21.458Z,87.20
2023-10-29T04:36:52.759Z,86.88
2023-10-29T04:39:20.674Z,87.42
2023-10-29T04:41:48.080Z,87.02
2023-10-29T04:44:15.173Z,87.33
2023-10-29T04:46:41.803Z,86.83
2023-10-29T04:49:08.652Z,87.48
2023-10-29T04:51:35.745Z,87.21
2023-10-29T04:54:02.597Z,87.72
2023-10-29T04:56:29.318Z,86.57
2023-10-29T04:58:56.000Z,87.10
2023-10-29T05:01:22.690Z,87.43
2023-10-29T05:03:49.554Z,87.44
2023-10-29T05:06:23.063Z,86.46
2023-10-29T05:08:53.087Z,86.88
2023-10-29T05:11:20.399Z,86.85
2023-10-29T05:13:47.061Z,86.78
2023-10-29T05:16:13.875Z,87.17
2023-10-29T05:18:40.667Z,87.00
2023-10-29T05:21:09.028Z,87.35
2023-10-29T05:23:36.216Z,87.00
2023-10-29T05:26:02.990Z,86.93
2023-10-29T05:28:29.717Z,87.40
2023-10-29T05:30:56.499Z,87.05
2023-10-29T05:33:23.315Z,87.39
2023-10-29T05:35:50.073Z,87.16
2023-10-29T05:38:16.736Z,86.75
2023-10-29T05:40:43.450Z,87.66
2023-10-29T05:43:11.248Z,87.11
2023-10-29T05:45:38.087Z,87.57
2023-10-29T05:48:05.257Z,87.02
2023-10-29T05:50:32.855Z,87.26
2023-10-29T05:52:59.764Z,87.22
2023-10-29T05:55:26.560Z,86.78
2023-10-29T05:57:53.646Z,87.42
2023-10-29T06:00:20.775Z,87.64
2023-10-29T06:02:47.644Z,87.09
2023-10-29T06:05:14.500Z,86.77
2023-10-29T06:07:45.187Z,87.27
2023-10-29T06:10:13.942Z,87.76
2023-10-29T06:12:41.764Z,86.95
2023-10-29T06:15:12.484Z,86.88
2023-10-29T06:17:40.065Z,86.88
2023-10-29T06:20:09.998Z,87.33
2023-10-29T06:22:36.791Z,86.98
2023-10-29T06:25:03.605Z,87.72
2023-10-29T06:27:30.365Z,86.85
2023-10-29T06:29:57.098Z,87.21
2023-10-29T06:32:24.392Z,87.21
2023-10-29T06:34:51.087Z,87.06
2023-10-29T06:37:17.803Z,87.23
2023-10-29T06:39:44.483Z,86.47
2023-10-29T06:42:11.265Z,87.02
2023-10-29T06:44:37.968Z,87.17
2023-10-29T06:47:06.150Z,87.11
2023-10-29T06:49:32.864Z,87.54
2023-10-29T06:51:59.554Z,86.48
2023-10-29T06:54:26.308Z,87.42
2023-10-29T06:56:53.115Z,86.73
2023-10-29T06:59:20.071Z,86.49
2023-10-29T07:01:48.428Z,86.97
2023-10-29T07:04:16.271Z,87.11
2023-10-29T07:06:44.339Z,87.15
2023-10-29T07:09:11.242Z,86.68
2023-10-29T07:11:38.045Z,87.58
2023-10-29T07:14:05.006Z,87.38
2023-10-29T07:16:31.637Z,86.67
2023-10-29T07:18:59.137Z,86.67
2023-10-29T07:21:27.303Z,87.25
2023-10-29T07:23:55.280Z,87.42
2023-10-29T07:26:21.920Z,86.86
2023-10-29T07:28:48.583Z,86.82
2023-10-29T07:31:16.911Z,87.43
2023-10-29T07:33:44.808Z,87.35
2023-10-29T07:36:11.489Z,86.58
2023-10-29T07:38:38.248Z,87.25
2023-10-29T07:41:04.916Z,87.38
2023-10-29T07:43:31.630Z,87.29
2023-10-29T07:46:07.527Z,87.32
2023-10-29T07:48:34.298Z,86.99
2023-10-29T07:51:01.462Z,87.06
2023-10-29T07:53:29.368Z,86.91
2023-10-29T07:55:56.031Z,87.54
2023-10-29T07:58:23.257Z,86.96
2023-10-29T08:00:50.229Z,86.75
2023-10-29T08:03:19.608Z,87.49
2023-10-29T08:05:52.810Z,87.32
2023-10-29T08:08:19.830Z,86.66
2023-10-29T08:10:46.984Z,86.96
2023-10-29T08:13:13.645Z,86.94
2023-10-29T08:15:43.487Z,86.91
2023-10-29T08:18:10.583Z,86.92
2023-10-29T08:20:38.882Z,87.79
2023-10-29T08:23:05.576Z,87.50
2023-10-29T08:25:32.730Z,87.21
2023-10-29T08:27:59.679Z,86.96
2023-10-29T08:30:26.342Z,87.70
2023-10-29T08:32:53.074Z,87.77
2023-10-29T08:35:19.815Z,86.86
2023-10-29T08:37:46.940Z,86.85
2023-10-29T08:40:14.571Z,87.60
2023-10-29T08:42:41.337Z,87.01
2023-10-29T08:45:08.336Z,86.74
2023-10-29T08:47:35.258Z,87.17
2023-10-29T08:50:02.106Z,86.86
2023-10-29T08:52:28.771Z,86.53
2023-10-29T08:54:55.415Z,86.93
2023-10-29T08:57:22.690Z,87.07
2023-10-29T08:59:49.582Z,87.07
2023-10-29T09:02:16.374Z,86.32
2023-10-29T09:04:43.038Z,86.58
2023-10-29T09:07:09.874Z,85.44
2023-10-29T09:09:39.277Z,85.46
2023-10-29T09:12:06.114Z,86.06
2023-10-29T09:14:32.800Z,85.88
2023-10-29T09:16:59.792Z,85.48
2023-10-29T09:19:28.850Z,85.49
2023-10-29T09:21:55.473Z,85.12
2023-10-29T09:24:22.197Z,85.64
2023-10-29T09:26:49.237Z,85.64
2023-10-29T09:29:15.916Z,85.73
2023-10-29T09:31:42.707Z,85.05
2023-10-29T09:34:09.576Z,85.66
2023-10-29T09:36:36.224Z,85.55
2023-10-29T09:39:03.389Z,85.21
2023-10-29T09:41:32.364Z,84.56
2023-10-29T09:43:59.834Z,84.67
2023-10-29T09:46:31.777Z,84.90
2023-10-29T09:48:59.624Z,84.29
2023-10-29T09:51:26.743Z,85.06
2023-10-29T09:53:55.482Z,85.02
2023-10-29T09:56:22.170Z,85.46
2023-10-29T09:58:48.914Z,84.58
2023-10-29T10:01:16.473Z,85.47
2023-10-29T10:03:43.523Z,84.51
2023-10-29T10:06:12.401Z,85.00
2023-10-29T10:08:39.138Z,85.41
2023-10-29T10:11:21.542Z,84.58
2023-10-29T10:13:48.582Z,84.81
2023-10-29T10:16:17.214Z,84.63
2023-10-29T10:18:50.204Z,84.40
2023-10-29T10:21:17.083Z,84.21
2023-10-29T10:23:48.612Z,84.02
2023-10-29T10:26:18.465Z,84.61
2023-10-29T10:28:55.228Z,84.33
2023-10-29T10:31:21.837Z,84.29
2023-10-29T10:33:49.418Z,84.17
2023-10-29T10:36:30.790Z,83.72
2023-10-29T10:38:57.511Z,83.98
2023-10-29T10:41:24.192Z,83.86
2023-10-29T10:44:14.693Z,83.87
2023-10-29T10:46:50.943Z,83.89
2023-10-29T10:49:18.970Z,83.75
2023-10-29T10:51:48.696Z,83.94
2023-10-29T10:54:20.759Z,83.60
2023-10-29T10:56:51.659Z,83.79
2023-10-29T10:59:19.218Z,83.79
2023-10-29T11:01:46.185Z,83.35
2023-10-29T11:04:13.401Z,83.74
2023-10-29T11:06:42.220Z,83.32
2023-10-29T11:09:14.304Z,83.26
2023-10-29T11:11:51.225Z,83.66
2023-10-29T11:14:19.429Z,83.01
2023-10-29T11:16:50.715Z,82.89
2023-10-29T11:19:45.951Z,82.80
2023-10-29T11:22:23.956Z,82.74
2023-10-29T11:25:16.991Z,82.91
2023-10-29T11:27:47.739Z,82.78
2023-10-29T11:30:28.753Z,82.70
2023-10-29T11:33:08.181Z,82.88
2023-10-29T11:35:35.515Z,82.66
2023-10-29T11:38:23.253Z,82.78
2023-10-29T11:40:51.088Z,82.61
2023-10-29T11:43:21.569Z,82.44
2023-10-29T11:45:58.758Z,82.59
2023-10-29T11:48:26.864Z,82.45
2023-10-29T11:51:12.017Z,82.30
2023-10-29T11:53:39.640Z,82.31
2023-10-29T11:56:11.453Z,82.30
2023-10-29T11:58:38.826Z,81.93
2023-10-29T12:01:05.849Z,82.12
2023-10-29T12:03:33.609Z,82.02
2023-10-29T12:06:02.163Z,82.34
2023-10-29T12:08:31.842Z,81.93
2023-10-29T12:10:59.457Z,81.71
2023-10-29T12:13:26.403Z,82.15
2023-10-29T12:15:58.534Z,81.90
2023-10-29T12:18:26.854Z,81.80
2023-10-29T12:21:10.746Z,81.96
2023-10-29T12:23:38.725Z,81.77
2023-10-29T12:26:08.049Z,81.93
2023-10-29T12:28:38.903Z,81.67
2023-10-29T12:31:08.635Z,82.07
2023-10-29T12:33:37.274Z,82.01
2023-10-29T12:36:07.725Z,81.91
2023-10-29T12:38:39.303Z,81.79
2023-10-29T12:41:16.207Z,82.26
2023-10-29T12:43:48.619Z,82.18
2023-10-29T12:46:20.030Z,82.22
2023-10-29T12:49:05.095Z,82.38
2023-10-29T12:51:44.628Z,82.00
2023-10-29T12:54:25.939Z,82.04
2023-10-29T12:56:57.792Z,82.33
2023-10-29T12:59:34.258Z,82.46
2023-10-29T13:02:10.247Z,82.09
2023-10-29T13:04:38.249Z,82.12
2023-10-29T13:07:12.935Z,82.28
2023-10-29T13:09:40.376Z,82.73
2023-10-29T13:12:09.370Z,82.10
2023-10-29T13:14:37.908Z,81.92
2023-10-29T13:17:05.919Z,81.46
2023-10-29T13:19:34.318Z,81.91
2023-10-29T13:22:01.150Z,81.99
2023-10-29T13:24:27.887Z,81.63
2023-10-29T13:26:54.727Z,81.15
2023-10-29T13:29:24.558Z,81.41
2023-10-29T13:31:51.223Z,81.00
2023-10-29T13:34:18.326Z,81.07
2023-10-29T13:36:45.247Z,81.27
2023-10-29T13:39:12.415Z,81.22
2023-10-29T13:41:39.672Z,81.60
2023-10-29T13:44:06.457Z,81.54
2023-10-29T13:46:33.216Z,81.24
2023-10-29T13:49:01.275Z,81.04
2023-10-29T13:51:28.398Z,81.58
2023-10-29T13:53:55.376Z,81.01
2023-10-29T13:56:24.593Z,80.31
2023-10-29T13:58:51.238Z,80.66
2023-10-29T14:01:24.211Z,80.78
2023-10-29T14:03:53.311Z,79.60
2023-10-29T14:06:20.396Z,79.11
2023-10-29T14:08:47.338Z,79.55
2023-10-29T14:11:15.860Z,79.69
2023-10-29T14:13:45.786Z,78.97
2023-10-29T14:16:13.645Z,79.02
2023-10-29T14:18:41.507Z,79.13
2023-10-29T14:21:08.460Z,79.58
2023-10-29T14:23:36.136Z,78.75
2023-10-29T14:26:02.905Z,79.62
2023-10-29T14:28:30.059Z,79.16
2023-10-29T14:30:57.229Z,79.17
2023-10-29T14:33:24.475Z,78.51
2023-10-29T14:35:58.495Z,78.50
2023-10-29T14:38:25.419Z,79.04
2023-10-29T14:40:54.688Z,79.48
2023-10-29T14:43:22.923Z,79.52
2023-10-29T14:45:54.250Z,79.82
2023-10-29T14:48:21.751Z,80.18
2023-10-29T14:50:49.580Z,80.15
2023-10-29T14:53:16.441Z,79.49
2023-10-29T14:55:48.768Z,79.99
2023-10-29T14:58:16.172Z,79.92
2023-10-29T15:00:46.628Z,80.15
2023-10-29T15:03:14.215Z,79.90
2023-10-29T15:05:41.794Z,79.66
2023-10-29T15:08:08.920Z,80.32
2023-10-29T15:10:35.895Z,79.96
2023-10-29T15:13:02.943Z,80.68
2023-10-29T15:15:30.570Z,80.67
2023-10-29T15:17:58.275Z,80.50
2023-10-29T15:20:27.624Z,80.26
2023-10-29T15:22:54.860Z,80.67
2023-10-29T15:25:30.461Z,80.74
2023-10-29T15:27:57.383Z,80.65
2023-10-29T15:30:24.056Z,80.67
2023-10-29T15:32:54.459Z,80.00
2023-10-29T15:35:21.329Z,80.90
2023-10-29T15:37:49.849Z,80.60
2023-10-29T15:40:16.666Z,80.82
2023-10-29T15:42:43.348Z,80.78
2023-10-29T15:45:10.425Z,81.02
2023-10-29T15:47:37.163Z,80.75
2023-10-29T15:50:04.750Z,81.09
2023-10-29T15:52:31.376Z,80.69
2023-10-29T15:54:58.082Z,81.43
2023-10-29T15:57:24.841Z,80.82
2023-10-29T15:59:51.784Z,80.90
2023-10-29T16:02:18.587Z,80.74
2023-10-29T16:04:45.852Z,81.32
2023-10-29T16:07:14.112Z,80.90
2023-10-29T16:09:40.760Z,81.25
2023-10-29T16:12:09.922Z,81.14
2023-10-29T16:14:37.207Z,81.62
2023-10-29T16:17:05.127Z,81.33
2023-10-29T16:19:32.368Z,81.34
2023-10-29T16:21:59.156Z,81.09
2023-10-29T16:24:29.324Z,81.75
2023-10-29T16:26:58.036Z,81.84
2023-10-29T16:29:24.949Z,81.79
2023-10-29T16:31:51.645Z,81.90
2023-10-29T16:34:20.154Z,82.34
2023-10-29T16:36:47.175Z,81.93
2023-10-29T16:39:13.807Z,82.31
2023-10-29T16:41:40.458Z,82.52
2023-10-29T16:44:07.111Z,82.19
2023-10-29T16:46:33.747Z,82.03
2023-10-29T16:49:02.539Z,82.51
2023-10-29T16:51:29.695Z,82.37
2023-10-29T16:53:56.459Z,82.38
2023-10-29T16:56:23.654Z,82.61
2023-10-29T16:58:50.384Z,82.58
2023-10-29T17:01:17.299Z,82.72
2023-10-29T17:03:46.390Z,82.63
2023-10-29T17:06:19.813Z,82.99
2023-10-29T17:08:47.080Z,82.76
2023-10-29T17:11:14.071Z,82.67
2023-10-29T17:13:43.392Z,82.37
2023-10-29T17:16:10.252Z,82.61
2023-10-29T17:18:37.676Z,82.83
2023-10-29T17:21:05.281Z,82.40
2023-10-29T17:23:32.909Z,82.54
2023-10-29T17:26:01.690Z,82.87
2023-10-29T17:28:28.447Z,82.40
2023-10-29T17:30:55.248Z,82.70
2023-10-29T17:33:23.068Z,82.76
2023-10-29T17:35:53.817Z,82.58
2023-10-29T17:38:21.007Z,82.30
2023-10-29T17:40:48.959Z,82.69
2023-10-29T17:43:15.573Z,83.33
2023-10-29T17:45:44.524Z,83.09
2023-10-29T17:48:11.889Z,83.50
2023-10-29T17:50:42.198Z,83.44
2023-10-29T17:53:08.867Z,83.25
2023-10-29T17:55:36.314Z,83.59
2023-10-29T17:58:03.746Z,83.52
2023-10-29T18:00:30.449Z,83.65
2023-10-29T18:03:00.441Z,83.57
2023-10-29T18:05:30.765Z,83.64
2023-10-29T18:07:57.885Z,83.88
2023-10-29T18:10:25.171Z,83.75
2023-10-29T18:12:52.112Z,83.82
2023-10-29T18:15:18.996Z,83.98
2023-10-29T18:17:46.038Z,84.20
2023-10-29T18:20:13.126Z,84.16
2023-10-29T18:22:40.059Z,83.92
2023-10-29T18:25:07.242Z,84.32
2023-10-29T18:27:37.021Z,84.23
2023-10-29T18:30:07.444Z,84.49
2023-10-29T18:32:35.088Z,84.64
2023-10-29T18:35:01.902Z,84.95
2023-10-29T18:37:28.612Z,84.78
2023-10-29T18:39:56.166Z,84.42
2023-10-29T18:42:23.166Z,85.06
2023-10-29T18:44:50.226Z,85.17
2023-10-29T18:47:23.472Z,85.35
2023-10-29T18:49:51.015Z,84.70
2023-10-29T18:52:19.919Z,84.92
2023-10-29T18:54:47.812Z,84.84
2023-10-29T18:57:15.451Z,84.91
2023-10-29T18:59:42.504Z,84.94
2023-10-29T19:02:09.340Z,84.96
2023-10-29T19:04:37.449Z,85.19
2023-10-29T19:07:04.925Z,85.68
2023-10-29T19:09:32.111Z,85.50
2023-10-29T19:11:58.971Z,85.47
2023-10-29T19:14:28.282Z,85.31
2023-10-29T19:17:00.491Z,85.85
2023-10-29T19:19:28.292Z,85.32
2023-10-29T19:21:55.315Z,85.76
2023-10-29T19:24:24.611Z,85.80
2023-10-29T19:26:51.482Z,85.59
2023-10-29T19:29:18.653Z,85.58
2023-10-29T19:31:45.826Z,85.19
2023-10-29T19:34:12.532Z,85.69
2023-10-29T19:36:39.379Z,85.20
2023-10-29T19:39:08.804Z,85.26
2023-10-29T19:41:36.258Z,85.64
2023-10-29T19:44:03.191Z,85.74
2023-10-29T19:46:32.330Z,85.24
2023-10-29T19:49:01.840Z,85.75
2023-10-29T19:51:29.724Z,85.30
2023-10-29T19:53:56.603Z,85.64
2023-10-29T19:56:25.105Z,86.10
2023-10-29T19:58:51.917Z,85.16
2023-10-29T20:01:21.384Z,85.96
2023-10-29T20:03:49.319Z,86.02
2023-10-29T20:06:16.386Z,86.20
2023-10-29T20:08:47.071Z,85.72
2023-10-29T20:11:15.048Z,86.00
2023-10-29T20:13:47.707Z,85.96
2023-10-29T20:16:15.478Z,85.53
2023-10-29T20:18:49.346Z,85.89
2023-10-29T20:21:19.970Z,85.51
2023-10-29T20:23:48.116Z,86.36
2023-10-29T20:26:17.217Z,85.99
2023-10-29T20:28:44.625Z,86.35
2023-10-29T20:31:11.392Z,86.14
2023-10-29T20:33:38.432Z,86.28
2023-10-29T20:36:08.942Z,85.76
2023-10-29T20:38:36.290Z,86.16
2023-10-29T20:41:10.054Z,85.67
2023-10-29T20:43:40.625Z,85.88
2023-10-29T20:46:09.973Z,86.56
2023-10-29T20:48:37.740Z,86.85
2023-10-29T20:51:04.933Z,86.07
2023-10-29T20:53:35.172Z,86.57
2023-10-29T20:56:06.591Z,85.86
2023-10-29T20:58:33.601Z,86.48
2023-10-29T21:01:03.271Z,85.51
2023-10-29T21:03:31.178Z,85.95
2023-10-29T21:05:59.557Z,85.45
2023-10-29T21:08:26.862Z,86.04
2023-10-29T21:11:09.782Z,86.29
2023-10-29T21:13:37.422Z,85.79
2023-10-29T21:16:07.641Z,85.91
2023-10-29T21:18:36.977Z,85.45
2023-10-29T21:21:04.118Z,84.97
2023-10-29T21:23:31.660Z,85.26
2023-10-29T21:25:59.260Z,85.54
2023-10-29T21:28:26.139Z,85.01
2023-10-29T21:30:52.990Z,85.42
2023-10-29T21:33:19.792Z,85.07
2023-10-29T21:35:47.537Z,85.53
2023-10-29T21:38:15.707Z,85.69
2023-10-29T21:40:42.619Z,85.14
2023-10-29T21:43:09.377Z,85.36
2023-10-29T21:45:42.142Z,85.06
2023-10-29T21:48:09.967Z,84.89
2023-10-29T21:50:39.512Z,85.32
2023-10-29T21:53:07.638Z,85.19
2023-10-29T21:55:37.202Z,85.22
2023-10-29T21:58:06.172Z,84.92
2023-10-29T22:00:33.259Z,85.49
2023-10-29T22:03:01.559Z,85.21
2023-10-29T22:05:30.158Z,85.52
2023-10-29T22:07:56.972Z,85.64
2023-10-29T22:10:23.783Z,85.40
2023-10-29T22:12:50.689Z,85.51
2023-10-29T22:15:18.431Z,85.43
2023-10-29T22:17:45.304Z,86.01
2023-10-29T22:20:12.346Z,85.42
2023-10-29T22:22:39.216Z,85.64
2023-10-29T22:25:06.229Z,86.19
2023-10-29T22:27:33.191Z,85.56
2023-10-29T22:30:00.208Z,85.97
2023-10-29T22:32:27.167Z,86.04
2023-10-29T22:34:53.952Z,86.07
2023-10-29T22:37:21.151Z,86.07
2023-10-29T22:39:48.257Z,86.20
2023-10-29T22:42:15.317Z,85.66
2023-10-29T22:44:42.040Z,85.75
2023-10-29T22:47:08.912Z,85.47
2023-10-29T22:49:35.989Z,85.56
2023-10-29T22:52:02.750Z,85.40
2023-10-29T22:54:30.179Z,85.10
2023-10-29T22:56:57.171Z,84.87
2023-10-29T22:59:23.835Z,85.37
2023-10-29T23:01:51.307Z,84.97
2023-10-29T23:04:18.049Z,85.53
2023-10-29T23:06:44.871Z,85.10
2023-10-29T23:09:14.773Z,84.91
2023-10-29T23:11:41.803Z,85.63
2023-10-29T23:14:08.631Z,85.55
2023-10-29T23:16:35.581Z,85.29
2023-10-29T23:19:02.930Z,84.56
2023-10-29T23:21:29.664Z,84.62
2023-10-29T23:23:56.458Z,85.39
2023-10-29T23:26:23.769Z,84.86
2023-10-29T23:28:53.542Z,85.30
2023-10-29T23:31:20.613Z,84.59
2023-10-29T23:33:47.793Z,84.76
2023-10-29T23:36:14.502Z,84.77
2023-10-29T23:38:41.217Z,85.22
2023-10-29T23:41:08.365Z,84.38
2023-10-29T23:43:35.062Z,84.74
2023-10-29T23:46:01.777Z,84.21
2023-10-29T23:48:31.862Z,85.18
2023-10-29T23:50:58.874Z,85.05
2023-10-29T23:53:25.626Z,85.16
2023-10-29T23:55:52.451Z,84.67
2023-10-29T23:58:20.393Z,84.58
